sensor_id;sensor_type;location;lat;lon;timestamp;P1;durP1;ratioP1;P2;durP2;ratioP2
44973;SDS011;60981;50.720;11.342;2022-12-18T00:00:18;23.53;;;10.20;;
44973;SDS011;60981;50.720;11.342;2022-12-18T00:01:27;22.03;;;9.83;;
44973;SDS011;60981;50.720;11.342;2022-12-18T00:02:29;21.63;;;9.93;;
44973;SDS011;60981;50.720;11.342;2022-12-18T00:03:34;17.77;;;9.20;;
44973;SDS011;60981;50.720;11.342;2022-12-18T00:04:36;23.97;;;10.07;;
44973;SDS011;60981;50.720;11.342;2022-12-18T00:05:37;20.03;;;10.07;;
44973;SDS011;60981;50.720;11.342;2022-12-18T00:06:39;20.77;;;9.73;;
44973;SDS011;60981;50.720;11.342;2022-12-18T00:07:41;21.40;;;9.50;;
44973;SDS011;60981;50.720;11.342;2022-12-18T00:08:43;19.17;;;9.40;;
44973;SDS011;60981;50.720;11.342;2022-12-18T00:09:45;23.17;;;10.20;;
44973;SDS011;60981;50.720;11.342;2022-12-18T00:10:46;22.03;;;10.27;;
44973;SDS011;60981;50.720;11.342;2022-12-18T00:11:48;21.43;;;8.90;;
44973;SDS011;60981;50.720;11.342;2022-12-18T00:12:49;20.73;;;9.03;;
44973;SDS011;60981;50.720;11.342;2022-12-18T00:13:52;20.03;;;8.87;;
44973;SDS011;60981;50.720;11.342;2022-12-18T00:14:54;22.90;;;9.17;;
44973;SDS011;60981;50.720;11.342;2022-12-18T00:15:55;20.63;;;9.20;;
44973;SDS011;60981;50.720;11.342;2022-12-18T00:17:02;19.50;;;8.57;;
44973;SDS011;60981;50.720;11.342;2022-12-18T00:18:04;19.13;;;9.40;;
44973;SDS011;60981;50.720;11.342;2022-12-18T00:19:05;20.43;;;9.10;;
44973;SDS011;60981;50.720;11.342;2022-12-18T00:20:08;20.00;;;9.97;;
44973;SDS011;60981;50.720;11.342;2022-12-18T00:21:10;20.20;;;10.27;;
44973;SDS011;60981;50.720;11.342;2022-12-18T00:22:12;23.70;;;10.40;;
44973;SDS011;60981;50.720;11.342;2022-12-18T00:23:14;23.40;;;10.43;;
44973;SDS011;60981;50.720;11.342;2022-12-18T00:24:15;20.07;;;9.57;;
44973;SDS011;60981;50.720;11.342;2022-12-18T00:25:17;21.20;;;9.90;;
44973;SDS011;60981;50.720;11.342;2022-12-18T00:26:20;23.93;;;9.57;;
44973;SDS011;60981;50.720;11.342;2022-12-18T00:27:21;24.90;;;10.10;;
44973;SDS011;60981;50.720;11.342;2022-12-18T00:28:23;21.70;;;9.47;;
44973;SDS011;60981;50.720;11.342;2022-12-18T00:29:24;22.67;;;10.37;;
44973;SDS011;60981;50.720;11.342;2022-12-18T00:30:26;22.40;;;9.40;;
44973;SDS011;60981;50.720;11.342;2022-12-18T00:31:27;19.33;;;9.40;;
44973;SDS011;60981;50.720;11.342;2022-12-18T00:32:29;22.63;;;10.90;;
44973;SDS011;60981;50.720;11.342;2022-12-18T00:33:31;25.33;;;10.00;;
44973;SDS011;60981;50.720;11.342;2022-12-18T00:34:32;20.90;;;11.03;;
44973;SDS011;60981;50.720;11.342;2022-12-18T00:35:34;21.00;;;9.90;;
44973;SDS011;60981;50.720;11.342;2022-12-18T00:36:35;24.20;;;10.73;;
44973;SDS011;60981;50.720;11.342;2022-12-18T00:37:37;23.37;;;10.17;;
44973;SDS011;60981;50.720;11.342;2022-12-18T00:38:38;24.63;;;9.67;;
44973;SDS011;60981;50.720;11.342;2022-12-18T00:39:40;21.20;;;9.57;;
44973;SDS011;60981;50.720;11.342;2022-12-18T00:40:42;22.70;;;9.93;;
44973;SDS011;60981;50.720;11.342;2022-12-18T00:41:43;21.57;;;9.20;;
44973;SDS011;60981;50.720;11.342;2022-12-18T00:43:03;23.33;;;9.87;;
44973;SDS011;60981;50.720;11.342;2022-12-18T00:44:05;21.60;;;10.67;;
44973;SDS011;60981;50.720;11.342;2022-12-18T00:45:07;21.13;;;9.60;;
44973;SDS011;60981;50.720;11.342;2022-12-18T00:46:13;19.50;;;9.17;;
44973;SDS011;60981;50.720;11.342;2022-12-18T00:47:14;22.67;;;9.93;;
44973;SDS011;60981;50.720;11.342;2022-12-18T00:48:16;20.60;;;9.37;;
44973;SDS011;60981;50.720;11.342;2022-12-18T00:49:18;22.27;;;10.00;;
44973;SDS011;60981;50.720;11.342;2022-12-18T00:50:21;21.30;;;10.10;;
44973;SDS011;60981;50.720;11.342;2022-12-18T00:51:23;22.03;;;9.87;;
44973;SDS011;60981;50.720;11.342;2022-12-18T00:52:25;24.00;;;10.23;;
44973;SDS011;60981;50.720;11.342;2022-12-18T00:53:26;20.80;;;8.83;;
44973;SDS011;60981;50.720;11.342;2022-12-18T00:54:28;20.30;;;9.20;;
44973;SDS011;60981;50.720;11.342;2022-12-18T00:55:29;20.63;;;9.20;;
44973;SDS011;60981;50.720;11.342;2022-12-18T00:56:31;19.83;;;9.33;;
44973;SDS011;60981;50.720;11.342;2022-12-18T00:57:32;20.80;;;9.67;;
44973;SDS011;60981;50.720;11.342;2022-12-18T00:58:34;20.73;;;8.83;;
44973;SDS011;60981;50.720;11.342;2022-12-18T00:59:38;24.33;;;10.40;;
44973;SDS011;60981;50.720;11.342;2022-12-18T01:00:39;20.07;;;8.77;;
44973;SDS011;60981;50.720;11.342;2022-12-18T01:01:41;21.60;;;9.33;;
44973;SDS011;60981;50.720;11.342;2022-12-18T01:02:44;23.97;;;9.87;;
44973;SDS011;60981;50.720;11.342;2022-12-18T01:03:46;20.77;;;8.70;;
44973;SDS011;60981;50.720;11.342;2022-12-18T01:04:47;19.73;;;9.13;;
44973;SDS011;60981;50.720;11.342;2022-12-18T01:05:49;22.60;;;10.17;;
44973;SDS011;60981;50.720;11.342;2022-12-18T01:06:51;18.63;;;9.83;;
44973;SDS011;60981;50.720;11.342;2022-12-18T01:07:52;22.87;;;9.13;;
44973;SDS011;60981;50.720;11.342;2022-12-18T01:08:54;20.77;;;9.03;;
44973;SDS011;60981;50.720;11.342;2022-12-18T01:09:55;21.17;;;9.57;;
44973;SDS011;60981;50.720;11.342;2022-12-18T01:10:57;24.40;;;10.57;;
44973;SDS011;60981;50.720;11.342;2022-12-18T01:11:59;18.80;;;8.23;;
44973;SDS011;60981;50.720;11.342;2022-12-18T01:13:00;18.77;;;8.77;;
44973;SDS011;60981;50.720;11.342;2022-12-18T01:14:01;24.33;;;9.27;;
44973;SDS011;60981;50.720;11.342;2022-12-18T01:15:03;20.60;;;9.13;;
44973;SDS011;60981;50.720;11.342;2022-12-18T01:16:06;20.53;;;8.53;;
44973;SDS011;60981;50.720;11.342;2022-12-18T01:17:07;21.73;;;9.80;;
44973;SDS011;60981;50.720;11.342;2022-12-18T01:18:09;22.53;;;9.40;;
44973;SDS011;60981;50.720;11.342;2022-12-18T01:19:10;28.00;;;9.50;;
44973;SDS011;60981;50.720;11.342;2022-12-18T01:20:12;21.13;;;9.10;;
44973;SDS011;60981;50.720;11.342;2022-12-18T01:21:15;19.73;;;9.27;;
44973;SDS011;60981;50.720;11.342;2022-12-18T01:22:17;20.07;;;8.93;;
44973;SDS011;60981;50.720;11.342;2022-12-18T01:23:18;22.07;;;9.80;;
44973;SDS011;60981;50.720;11.342;2022-12-18T01:24:20;22.27;;;9.73;;
44973;SDS011;60981;50.720;11.342;2022-12-18T01:25:21;23.57;;;9.90;;
44973;SDS011;60981;50.720;11.342;2022-12-18T01:26:23;20.13;;;9.50;;
44973;SDS011;60981;50.720;11.342;2022-12-18T01:27:25;23.97;;;9.57;;
44973;SDS011;60981;50.720;11.342;2022-12-18T01:28:26;22.97;;;9.43;;
44973;SDS011;60981;50.720;11.342;2022-12-18T01:29:28;22.57;;;8.87;;
44973;SDS011;60981;50.720;11.342;2022-12-18T01:30:30;19.90;;;8.63;;
44973;SDS011;60981;50.720;11.342;2022-12-18T01:31:32;23.67;;;8.93;;
44973;SDS011;60981;50.720;11.342;2022-12-18T01:32:34;20.67;;;9.07;;
44973;SDS011;60981;50.720;11.342;2022-12-18T01:33:35;20.83;;;9.67;;
44973;SDS011;60981;50.720;11.342;2022-12-18T01:34:37;19.07;;;8.80;;
44973;SDS011;60981;50.720;11.342;2022-12-18T01:35:42;18.83;;;8.20;;
44973;SDS011;60981;50.720;11.342;2022-12-18T01:36:43;22.93;;;9.90;;
44973;SDS011;60981;50.720;11.342;2022-12-18T01:37:45;22.63;;;9.47;;
44973;SDS011;60981;50.720;11.342;2022-12-18T01:38:47;22.70;;;9.63;;
44973;SDS011;60981;50.720;11.342;2022-12-18T01:39:48;24.00;;;10.13;;
44973;SDS011;60981;50.720;11.342;2022-12-18T01:40:56;19.73;;;8.87;;
44973;SDS011;60981;50.720;11.342;2022-12-18T01:41:58;18.67;;;9.10;;
44973;SDS011;60981;50.720;11.342;2022-12-18T01:43:08;22.63;;;9.07;;
44973;SDS011;60981;50.720;11.342;2022-12-18T01:45:30;18.13;;;8.37;;
44973;SDS011;60981;50.720;11.342;2022-12-18T01:46:32;22.60;;;10.20;;
44973;SDS011;60981;50.720;11.342;2022-12-18T01:47:41;20.20;;;8.67;;
44973;SDS011;60981;50.720;11.342;2022-12-18T01:48:50;18.00;;;8.50;;
44973;SDS011;60981;50.720;11.342;2022-12-18T01:49:53;21.53;;;9.10;;
44973;SDS011;60981;50.720;11.342;2022-12-18T01:50:55;24.70;;;9.53;;
44973;SDS011;60981;50.720;11.342;2022-12-18T01:51:57;21.47;;;9.90;;
44973;SDS011;60981;50.720;11.342;2022-12-18T01:53:10;21.53;;;8.80;;
44973;SDS011;60981;50.720;11.342;2022-12-18T01:54:12;21.43;;;9.93;;
44973;SDS011;60981;50.720;11.342;2022-12-18T01:55:15;25.97;;;9.73;;
44973;SDS011;60981;50.720;11.342;2022-12-18T01:56:20;21.17;;;9.57;;
44973;SDS011;60981;50.720;11.342;2022-12-18T01:57:22;17.87;;;8.50;;
44973;SDS011;60981;50.720;11.342;2022-12-18T01:58:48;21.47;;;8.00;;
44973;SDS011;60981;50.720;11.342;2022-12-18T01:59:47;17.83;;;8.65;;
44973;SDS011;60981;50.720;11.342;2022-12-18T02:00:50;18.50;;;7.97;;
44973;SDS011;60981;50.720;11.342;2022-12-18T02:01:52;19.77;;;7.97;;
44973;SDS011;60981;50.720;11.342;2022-12-18T02:02:53;19.13;;;8.57;;
44973;SDS011;60981;50.720;11.342;2022-12-18T02:03:55;19.77;;;8.20;;
44973;SDS011;60981;50.720;11.342;2022-12-18T02:04:57;16.80;;;9.00;;
44973;SDS011;60981;50.720;11.342;2022-12-18T02:08:14;19.90;;;8.30;;
44973;SDS011;60981;50.720;11.342;2022-12-18T02:10:20;19.37;;;8.50;;
44973;SDS011;60981;50.720;11.342;2022-12-18T02:14:45;20.60;;;8.07;;
44973;SDS011;60981;50.720;11.342;2022-12-18T02:15:51;19.17;;;8.60;;
44973;SDS011;60981;50.720;11.342;2022-12-18T02:16:59;17.80;;;8.40;;
44973;SDS011;60981;50.720;11.342;2022-12-18T02:18:05;17.00;;;7.70;;
44973;SDS011;60981;50.720;11.342;2022-12-18T02:19:55;15.70;;;7.70;;
44973;SDS011;60981;50.720;11.342;2022-12-18T02:20:54;15.85;;;7.70;;
44973;SDS011;60981;50.720;11.342;2022-12-18T02:21:56;18.37;;;7.27;;
44973;SDS011;60981;50.720;11.342;2022-12-18T02:24:13;16.63;;;7.60;;
44973;SDS011;60981;50.720;11.342;2022-12-18T02:26:26;19.27;;;8.33;;
44973;SDS011;60981;50.720;11.342;2022-12-18T02:27:30;23.40;;;8.23;;
44973;SDS011;60981;50.720;11.342;2022-12-18T02:28:35;16.07;;;6.77;;
44973;SDS011;60981;50.720;11.342;2022-12-18T02:29:42;16.90;;;7.57;;
44973;SDS011;60981;50.720;11.342;2022-12-18T02:30:47;19.77;;;8.17;;
44973;SDS011;60981;50.720;11.342;2022-12-18T02:31:53;16.30;;;7.67;;
44973;SDS011;60981;50.720;11.342;2022-12-18T02:32:55;19.17;;;7.37;;
44973;SDS011;60981;50.720;11.342;2022-12-18T02:34:00;15.20;;;7.03;;
44973;SDS011;60981;50.720;11.342;2022-12-18T02:35:03;19.90;;;6.70;;
44973;SDS011;60981;50.720;11.342;2022-12-18T02:36:05;17.07;;;6.97;;
44973;SDS011;60981;50.720;11.342;2022-12-18T02:37:09;14.37;;;7.23;;
44973;SDS011;60981;50.720;11.342;2022-12-18T02:38:12;16.47;;;7.67;;
44973;SDS011;60981;50.720;11.342;2022-12-18T02:39:14;18.77;;;6.87;;
44973;SDS011;60981;50.720;11.342;2022-12-18T02:40:17;20.77;;;8.10;;
44973;SDS011;60981;50.720;11.342;2022-12-18T02:41:19;15.10;;;7.30;;
44973;SDS011;60981;50.720;11.342;2022-12-18T02:42:25;19.17;;;7.53;;
44973;SDS011;60981;50.720;11.342;2022-12-18T02:43:27;16.53;;;6.27;;
44973;SDS011;60981;50.720;11.342;2022-12-18T02:44:28;17.77;;;7.53;;
44973;SDS011;60981;50.720;11.342;2022-12-18T02:45:30;19.10;;;7.63;;
44973;SDS011;60981;50.720;11.342;2022-12-18T02:46:33;15.93;;;7.70;;
44973;SDS011;60981;50.720;11.342;2022-12-18T02:47:36;22.20;;;7.80;;
44973;SDS011;60981;50.720;11.342;2022-12-18T02:48:39;17.50;;;7.00;;
44973;SDS011;60981;50.720;11.342;2022-12-18T02:50:45;15.47;;;7.10;;
44973;SDS011;60981;50.720;11.342;2022-12-18T02:51:53;17.00;;;7.40;;
44973;SDS011;60981;50.720;11.342;2022-12-18T02:53:03;16.53;;;7.27;;
44973;SDS011;60981;50.720;11.342;2022-12-18T02:54:13;14.55;;;6.90;;
44973;SDS011;60981;50.720;11.342;2022-12-18T02:55:21;12.35;;;5.80;;
44973;SDS011;60981;50.720;11.342;2022-12-18T02:56:33;13.43;;;6.83;;
44973;SDS011;60981;50.720;11.342;2022-12-18T02:57:39;15.97;;;6.67;;
44973;SDS011;60981;50.720;11.342;2022-12-18T03:00:04;16.30;;;6.60;;
44973;SDS011;60981;50.720;11.342;2022-12-18T03:03:22;15.70;;;6.63;;
44973;SDS011;60981;50.720;11.342;2022-12-18T03:04:26;13.20;;;6.27;;
44973;SDS011;60981;50.720;11.342;2022-12-18T03:05:31;13.50;;;6.27;;
44973;SDS011;60981;50.720;11.342;2022-12-18T03:06:35;18.40;;;7.37;;
44973;SDS011;60981;50.720;11.342;2022-12-18T03:07:40;14.17;;;6.73;;
44973;SDS011;60981;50.720;11.342;2022-12-18T03:08:44;16.33;;;6.83;;
44973;SDS011;60981;50.720;11.342;2022-12-18T03:09:48;15.60;;;6.63;;
44973;SDS011;60981;50.720;11.342;2022-12-18T03:10:55;12.07;;;5.40;;
44973;SDS011;60981;50.720;11.342;2022-12-18T03:12:02;18.30;;;7.33;;
44973;SDS011;60981;50.720;11.342;2022-12-18T03:14:06;15.50;;;6.50;;
44973;SDS011;60981;50.720;11.342;2022-12-18T03:14:49;18.23;;;7.77;;
44973;SDS011;60981;50.720;11.342;2022-12-18T03:15:53;12.50;;;5.77;;
44973;SDS011;60981;50.720;11.342;2022-12-18T03:16:57;17.40;;;7.53;;
44973;SDS011;60981;50.720;11.342;2022-12-18T03:18:08;14.00;;;5.93;;
44973;SDS011;60981;50.720;11.342;2022-12-18T03:19:13;14.25;;;6.07;;
44973;SDS011;60981;50.720;11.342;2022-12-18T03:20:17;18.47;;;6.57;;
44973;SDS011;60981;50.720;11.342;2022-12-18T03:21:21;15.27;;;6.20;;
44973;SDS011;60981;50.720;11.342;2022-12-18T03:22:23;13.23;;;5.73;;
44973;SDS011;60981;50.720;11.342;2022-12-18T03:23:27;14.83;;;6.77;;
44973;SDS011;60981;50.720;11.342;2022-12-18T03:24:30;19.53;;;6.67;;
44973;SDS011;60981;50.720;11.342;2022-12-18T03:25:32;13.13;;;6.07;;
44973;SDS011;60981;50.720;11.342;2022-12-18T03:26:36;13.83;;;6.30;;
44973;SDS011;60981;50.720;11.342;2022-12-18T03:27:40;12.50;;;5.73;;
44973;SDS011;60981;50.720;11.342;2022-12-18T03:28:44;15.63;;;6.83;;
44973;SDS011;60981;50.720;11.342;2022-12-18T03:29:52;13.37;;;5.50;;
44973;SDS011;60981;50.720;11.342;2022-12-18T03:30:56;15.30;;;6.60;;
44973;SDS011;60981;50.720;11.342;2022-12-18T03:32:00;18.43;;;6.27;;
44973;SDS011;60981;50.720;11.342;2022-12-18T03:34:17;14.30;;;6.50;;
44973;SDS011;60981;50.720;11.342;2022-12-18T03:35:21;14.53;;;6.23;;
44973;SDS011;60981;50.720;11.342;2022-12-18T03:36:24;13.30;;;5.87;;
44973;SDS011;60981;50.720;11.342;2022-12-18T03:37:26;14.90;;;6.20;;
44973;SDS011;60981;50.720;11.342;2022-12-18T03:38:27;15.97;;;6.37;;
44973;SDS011;60981;50.720;11.342;2022-12-18T03:39:29;13.70;;;5.97;;
44973;SDS011;60981;50.720;11.342;2022-12-18T03:40:33;15.30;;;6.40;;
44973;SDS011;60981;50.720;11.342;2022-12-18T03:41:53;14.10;;;6.07;;
44973;SDS011;60981;50.720;11.342;2022-12-18T03:43:02;12.03;;;5.37;;
44973;SDS011;60981;50.720;11.342;2022-12-18T03:45:27;12.20;;;5.30;;
44973;SDS011;60981;50.720;11.342;2022-12-18T03:47:42;15.47;;;6.20;;
44973;SDS011;60981;50.720;11.342;2022-12-18T03:48:49;15.03;;;5.93;;
44973;SDS011;60981;50.720;11.342;2022-12-18T03:49:56;16.03;;;5.87;;
44973;SDS011;60981;50.720;11.342;2022-12-18T03:52:02;14.67;;;6.27;;
44973;SDS011;60981;50.720;11.342;2022-12-18T03:54:24;16.27;;;5.60;;
44973;SDS011;60981;50.720;11.342;2022-12-18T03:55:27;15.90;;;5.87;;
44973;SDS011;60981;50.720;11.342;2022-12-18T03:56:32;14.33;;;5.73;;
44973;SDS011;60981;50.720;11.342;2022-12-18T03:57:34;12.87;;;5.50;;
44973;SDS011;60981;50.720;11.342;2022-12-18T03:58:37;15.13;;;6.10;;
44973;SDS011;60981;50.720;11.342;2022-12-18T03:59:42;12.93;;;5.73;;
44973;SDS011;60981;50.720;11.342;2022-12-18T04:00:44;12.17;;;5.03;;
44973;SDS011;60981;50.720;11.342;2022-12-18T04:01:47;14.57;;;6.37;;
44973;SDS011;60981;50.720;11.342;2022-12-18T04:02:51;14.50;;;6.23;;
44973;SDS011;60981;50.720;11.342;2022-12-18T04:03:53;13.60;;;6.13;;
44973;SDS011;60981;50.720;11.342;2022-12-18T04:04:57;12.73;;;6.03;;
44973;SDS011;60981;50.720;11.342;2022-12-18T04:05:59;15.07;;;5.63;;
44973;SDS011;60981;50.720;11.342;2022-12-18T04:07:01;12.80;;;6.00;;
44973;SDS011;60981;50.720;11.342;2022-12-18T04:08:03;15.77;;;6.07;;
44973;SDS011;60981;50.720;11.342;2022-12-18T04:09:05;15.63;;;6.57;;
44973;SDS011;60981;50.720;11.342;2022-12-18T04:10:07;17.87;;;6.57;;
44973;SDS011;60981;50.720;11.342;2022-12-18T04:11:14;12.37;;;5.73;;
44973;SDS011;60981;50.720;11.342;2022-12-18T04:12:16;13.03;;;5.47;;
44973;SDS011;60981;50.720;11.342;2022-12-18T04:13:24;10.93;;;5.70;;
44973;SDS011;60981;50.720;11.342;2022-12-18T04:14:26;15.23;;;6.50;;
44973;SDS011;60981;50.720;11.342;2022-12-18T04:15:27;15.67;;;6.40;;
44973;SDS011;60981;50.720;11.342;2022-12-18T04:16:29;15.73;;;6.70;;
44973;SDS011;60981;50.720;11.342;2022-12-18T04:17:30;14.23;;;5.97;;
44973;SDS011;60981;50.720;11.342;2022-12-18T04:18:32;14.53;;;6.03;;
44973;SDS011;60981;50.720;11.342;2022-12-18T04:19:33;13.50;;;5.80;;
44973;SDS011;60981;50.720;11.342;2022-12-18T04:20:35;13.00;;;6.60;;
44973;SDS011;60981;50.720;11.342;2022-12-18T04:21:36;15.67;;;5.63;;
44973;SDS011;60981;50.720;11.342;2022-12-18T04:22:38;12.83;;;6.10;;
44973;SDS011;60981;50.720;11.342;2022-12-18T04:23:41;12.93;;;6.30;;
44973;SDS011;60981;50.720;11.342;2022-12-18T04:24:43;17.20;;;8.83;;
44973;SDS011;60981;50.720;11.342;2022-12-18T04:25:45;15.43;;;7.00;;
44973;SDS011;60981;50.720;11.342;2022-12-18T04:26:47;12.30;;;5.77;;
44973;SDS011;60981;50.720;11.342;2022-12-18T04:27:49;14.37;;;6.00;;
44973;SDS011;60981;50.720;11.342;2022-12-18T04:28:50;15.40;;;5.27;;
44973;SDS011;60981;50.720;11.342;2022-12-18T04:29:52;14.50;;;6.03;;
44973;SDS011;60981;50.720;11.342;2022-12-18T04:30:54;14.90;;;6.37;;
44973;SDS011;60981;50.720;11.342;2022-12-18T04:31:55;11.57;;;5.73;;
44973;SDS011;60981;50.720;11.342;2022-12-18T04:32:57;17.17;;;7.10;;
44973;SDS011;60981;50.720;11.342;2022-12-18T04:33:59;13.27;;;5.40;;
44973;SDS011;60981;50.720;11.342;2022-12-18T04:35:00;15.43;;;5.93;;
44973;SDS011;60981;50.720;11.342;2022-12-18T04:36:02;14.70;;;6.27;;
44973;SDS011;60981;50.720;11.342;2022-12-18T04:37:04;12.87;;;5.33;;
44973;SDS011;60981;50.720;11.342;2022-12-18T04:38:06;15.67;;;6.43;;
44973;SDS011;60981;50.720;11.342;2022-12-18T04:39:08;16.30;;;6.53;;
44973;SDS011;60981;50.720;11.342;2022-12-18T04:40:10;14.97;;;6.40;;
44973;SDS011;60981;50.720;11.342;2022-12-18T04:41:11;9.90;;;5.30;;
44973;SDS011;60981;50.720;11.342;2022-12-18T04:42:16;13.87;;;5.33;;
44973;SDS011;60981;50.720;11.342;2022-12-18T04:43:17;13.20;;;5.30;;
44973;SDS011;60981;50.720;11.342;2022-12-18T04:44:19;16.53;;;5.93;;
44973;SDS011;60981;50.720;11.342;2022-12-18T04:45:21;18.93;;;6.63;;
44973;SDS011;60981;50.720;11.342;2022-12-18T04:46:22;17.43;;;6.83;;
44973;SDS011;60981;50.720;11.342;2022-12-18T04:47:24;14.40;;;6.00;;
44973;SDS011;60981;50.720;11.342;2022-12-18T04:48:25;11.87;;;5.43;;
44973;SDS011;60981;50.720;11.342;2022-12-18T04:49:27;12.73;;;5.10;;
44973;SDS011;60981;50.720;11.342;2022-12-18T04:50:28;12.87;;;5.47;;
44973;SDS011;60981;50.720;11.342;2022-12-18T04:51:30;14.00;;;5.93;;
44973;SDS011;60981;50.720;11.342;2022-12-18T04:52:32;15.93;;;6.23;;
44973;SDS011;60981;50.720;11.342;2022-12-18T04:53:33;12.07;;;5.73;;
44973;SDS011;60981;50.720;11.342;2022-12-18T04:54:35;10.80;;;5.07;;
44973;SDS011;60981;50.720;11.342;2022-12-18T04:55:36;14.10;;;5.73;;
44973;SDS011;60981;50.720;11.342;2022-12-18T04:56:38;13.30;;;5.27;;
44973;SDS011;60981;50.720;11.342;2022-12-18T04:57:41;17.77;;;5.63;;
44973;SDS011;60981;50.720;11.342;2022-12-18T04:58:43;13.50;;;6.27;;
44973;SDS011;60981;50.720;11.342;2022-12-18T04:59:45;12.40;;;5.60;;
44973;SDS011;60981;50.720;11.342;2022-12-18T05:00:47;11.73;;;5.70;;
44973;SDS011;60981;50.720;11.342;2022-12-18T05:01:48;13.40;;;5.73;;
44973;SDS011;60981;50.720;11.342;2022-12-18T05:02:50;11.70;;;5.43;;
44973;SDS011;60981;50.720;11.342;2022-12-18T05:03:52;15.00;;;6.20;;
44973;SDS011;60981;50.720;11.342;2022-12-18T05:04:53;15.80;;;6.53;;
44973;SDS011;60981;50.720;11.342;2022-12-18T05:05:55;16.83;;;6.07;;
44973;SDS011;60981;50.720;11.342;2022-12-18T05:06:57;13.10;;;6.27;;
44973;SDS011;60981;50.720;11.342;2022-12-18T05:07:59;17.60;;;6.97;;
44973;SDS011;60981;50.720;11.342;2022-12-18T05:09:00;14.37;;;5.77;;
44973;SDS011;60981;50.720;11.342;2022-12-18T05:10:02;13.10;;;5.47;;
44973;SDS011;60981;50.720;11.342;2022-12-18T05:11:04;12.10;;;6.23;;
44973;SDS011;60981;50.720;11.342;2022-12-18T05:12:06;13.07;;;6.03;;
44973;SDS011;60981;50.720;11.342;2022-12-18T05:13:08;14.23;;;6.17;;
44973;SDS011;60981;50.720;11.342;2022-12-18T05:14:09;13.57;;;6.20;;
44973;SDS011;60981;50.720;11.342;2022-12-18T05:15:11;16.27;;;6.53;;
44973;SDS011;60981;50.720;11.342;2022-12-18T05:16:12;17.47;;;6.57;;
44973;SDS011;60981;50.720;11.342;2022-12-18T05:17:14;19.43;;;7.47;;
44973;SDS011;60981;50.720;11.342;2022-12-18T05:18:16;20.33;;;7.83;;
44973;SDS011;60981;50.720;11.342;2022-12-18T05:19:17;16.87;;;6.93;;
44973;SDS011;60981;50.720;11.342;2022-12-18T05:20:19;18.80;;;5.90;;
44973;SDS011;60981;50.720;11.342;2022-12-18T05:21:20;17.83;;;6.50;;
44973;SDS011;60981;50.720;11.342;2022-12-18T05:22:22;16.87;;;6.00;;
44973;SDS011;60981;50.720;11.342;2022-12-18T05:23:24;16.10;;;5.97;;
44973;SDS011;60981;50.720;11.342;2022-12-18T05:24:25;17.43;;;6.13;;
44973;SDS011;60981;50.720;11.342;2022-12-18T05:25:28;13.77;;;6.17;;
44973;SDS011;60981;50.720;11.342;2022-12-18T05:26:30;14.90;;;6.20;;
44973;SDS011;60981;50.720;11.342;2022-12-18T05:27:32;15.50;;;5.93;;
44973;SDS011;60981;50.720;11.342;2022-12-18T05:28:34;17.53;;;6.20;;
44973;SDS011;60981;50.720;11.342;2022-12-18T05:29:35;13.83;;;5.53;;
44973;SDS011;60981;50.720;11.342;2022-12-18T05:30:37;13.30;;;5.70;;
44973;SDS011;60981;50.720;11.342;2022-12-18T05:31:38;16.97;;;5.97;;
44973;SDS011;60981;50.720;11.342;2022-12-18T05:32:40;14.23;;;7.00;;
44973;SDS011;60981;50.720;11.342;2022-12-18T05:33:42;14.83;;;5.97;;
44973;SDS011;60981;50.720;11.342;2022-12-18T05:34:44;16.57;;;6.57;;
44973;SDS011;60981;50.720;11.342;2022-12-18T05:35:56;11.07;;;5.93;;
44973;SDS011;60981;50.720;11.342;2022-12-18T05:36:58;13.90;;;5.77;;
44973;SDS011;60981;50.720;11.342;2022-12-18T05:37:59;14.03;;;5.90;;
44973;SDS011;60981;50.720;11.342;2022-12-18T05:39:01;16.30;;;6.50;;
44973;SDS011;60981;50.720;11.342;2022-12-18T05:40:03;15.37;;;6.80;;
44973;SDS011;60981;50.720;11.342;2022-12-18T05:41:05;16.23;;;6.00;;
44973;SDS011;60981;50.720;11.342;2022-12-18T05:42:07;14.80;;;6.83;;
44973;SDS011;60981;50.720;11.342;2022-12-18T05:43:09;17.53;;;6.53;;
44973;SDS011;60981;50.720;11.342;2022-12-18T05:44:10;16.00;;;5.47;;
44973;SDS011;60981;50.720;11.342;2022-12-18T05:45:12;17.30;;;6.53;;
44973;SDS011;60981;50.720;11.342;2022-12-18T05:46:15;13.67;;;5.63;;
44973;SDS011;60981;50.720;11.342;2022-12-18T05:47:16;16.27;;;6.07;;
44973;SDS011;60981;50.720;11.342;2022-12-18T05:48:19;13.30;;;6.20;;
44973;SDS011;60981;50.720;11.342;2022-12-18T05:49:20;16.83;;;6.67;;
44973;SDS011;60981;50.720;11.342;2022-12-18T05:50:22;14.50;;;6.17;;
44973;SDS011;60981;50.720;11.342;2022-12-18T05:51:24;15.20;;;6.80;;
44973;SDS011;60981;50.720;11.342;2022-12-18T05:52:25;14.97;;;6.37;;
44973;SDS011;60981;50.720;11.342;2022-12-18T05:53:27;21.70;;;7.17;;
44973;SDS011;60981;50.720;11.342;2022-12-18T05:54:28;16.97;;;6.63;;
44973;SDS011;60981;50.720;11.342;2022-12-18T05:55:33;11.47;;;5.67;;
44973;SDS011;60981;50.720;11.342;2022-12-18T05:56:35;17.23;;;7.10;;
44973;SDS011;60981;50.720;11.342;2022-12-18T05:57:37;16.90;;;6.13;;
44973;SDS011;60981;50.720;11.342;2022-12-18T05:58:39;14.40;;;6.47;;
44973;SDS011;60981;50.720;11.342;2022-12-18T05:59:40;14.53;;;6.33;;
44973;SDS011;60981;50.720;11.342;2022-12-18T06:00:43;13.23;;;5.73;;
44973;SDS011;60981;50.720;11.342;2022-12-18T06:01:45;14.03;;;5.63;;
44973;SDS011;60981;50.720;11.342;2022-12-18T06:02:47;11.90;;;5.50;;
44973;SDS011;60981;50.720;11.342;2022-12-18T06:03:49;13.90;;;6.30;;
44973;SDS011;60981;50.720;11.342;2022-12-18T06:04:50;13.00;;;4.97;;
44973;SDS011;60981;50.720;11.342;2022-12-18T06:05:52;12.47;;;4.93;;
44973;SDS011;60981;50.720;11.342;2022-12-18T06:06:53;14.80;;;6.27;;
44973;SDS011;60981;50.720;11.342;2022-12-18T06:07:55;14.67;;;5.60;;
44973;SDS011;60981;50.720;11.342;2022-12-18T06:08:56;13.17;;;5.53;;
44973;SDS011;60981;50.720;11.342;2022-12-18T06:09:58;12.63;;;5.40;;
44973;SDS011;60981;50.720;11.342;2022-12-18T06:10:59;14.13;;;6.60;;
44973;SDS011;60981;50.720;11.342;2022-12-18T06:12:01;13.57;;;5.10;;
44973;SDS011;60981;50.720;11.342;2022-12-18T06:13:03;11.43;;;5.20;;
44973;SDS011;60981;50.720;11.342;2022-12-18T06:14:04;13.50;;;5.23;;
44973;SDS011;60981;50.720;11.342;2022-12-18T06:15:06;12.00;;;5.37;;
44973;SDS011;60981;50.720;11.342;2022-12-18T06:16:08;15.80;;;5.20;;
44973;SDS011;60981;50.720;11.342;2022-12-18T06:17:09;12.90;;;5.60;;
44973;SDS011;60981;50.720;11.342;2022-12-18T06:18:11;12.93;;;5.43;;
44973;SDS011;60981;50.720;11.342;2022-12-18T06:19:14;14.93;;;5.47;;
44973;SDS011;60981;50.720;11.342;2022-12-18T06:20:16;12.13;;;4.93;;
44973;SDS011;60981;50.720;11.342;2022-12-18T06:21:18;12.33;;;4.80;;
44973;SDS011;60981;50.720;11.342;2022-12-18T06:22:19;12.13;;;5.67;;
44973;SDS011;60981;50.720;11.342;2022-12-18T06:23:21;10.47;;;5.00;;
44973;SDS011;60981;50.720;11.342;2022-12-18T06:24:22;15.23;;;5.90;;
44973;SDS011;60981;50.720;11.342;2022-12-18T06:25:24;10.20;;;4.90;;
44973;SDS011;60981;50.720;11.342;2022-12-18T06:26:26;12.60;;;5.43;;
44973;SDS011;60981;50.720;11.342;2022-12-18T06:27:28;12.73;;;5.67;;
44973;SDS011;60981;50.720;11.342;2022-12-18T06:28:30;12.23;;;4.73;;
44973;SDS011;60981;50.720;11.342;2022-12-18T06:29:31;14.57;;;5.80;;